Time;durP1;ratioP1;P1;durP2;ratioP2;P2;SDS_P1;SDS_P2;PMS_P1;PMS_P2;Temp;Humidity;BMP_temperature;BMP_pressure;BME280_temperature;BME280_humidity;BME280_pressure;Samples;Min_cycle;Max_cycle;Signal;HPM_P1;HPM_P2
2022/05/27 00:00:05;;;;;;;6.22;1.30;;;17.30;99.90;;;;;;7349782;19;109989;-90
2022/05/27 00:02:32;;;;;;;5.30;1.23;;;17.30;99.90;;;;;;7346724;19;108299;-89
2022/05/27 00:05:00;;;;;;;7.40;1.10;;;17.30;99.90;;;;;;7349649;19;110035;-91
2022/05/27 00:07:27;;;;;;;8.32;1.00;;;17.30;99.90;;;;;;7350166;19;108206;-90
2022/05/27 00:09:54;;;;;;;6.20;0.85;;;17.30;99.90;;;;;;7349142;19;109380;-90
2022/05/27 00:12:22;;;;;;;6.22;1.40;;;17.30;99.90;;;;;;7348805;19;108367;-90
2022/05/27 00:14:49;;;;;;;6.25;1.45;;;17.30;99.90;;;;;;7347114;19;108700;-90
2022/05/27 00:17:16;;;;;;;6.18;1.02;;;17.30;99.90;;;;;;7352366;19;108102;-90
2022/05/27 00:19:44;;;;;;;8.13;1.10;;;17.30;99.90;;;;;;7349859;19;108282;-90
2022/05/27 00:22:11;;;;;;;3.50;1.30;;;17.30;99.90;;;;;;7346184;19;112558;-91
2022/05/27 00:24:38;;;;;;;7.03;1.30;;;17.20;99.90;;;;;;7347324;19;108052;-90
2022/05/27 00:27:08;;;;;;;4.32;1.40;;;17.20;99.90;;;;;;7348066;19;107510;-89
2022/05/27 00:29:35;;;;;;;4.40;1.10;;;17.20;99.90;;;;;;7346717;19;110436;-91
2022/05/27 00:32:22;;;;;;;5.40;1.38;;;17.30;99.90;;;;;;7346411;19;109567;-90
2022/05/27 00:34:50;;;;;;;5.57;1.35;;;17.20;99.90;;;;;;7346512;19;110148;-90
2022/05/27 00:37:18;;;;;;;4.45;1.17;;;17.20;99.90;;;;;;7348324;19;109253;-90
2022/05/27 00:39:45;;;;;;;5.93;1.30;;;17.20;99.90;;;;;;7349276;19;107558;-90
2022/05/27 00:42:12;;;;;;;5.97;1.30;;;17.20;99.90;;;;;;7347063;19;108732;-90
2022/05/27 00:44:39;;;;;;;7.13;1.40;;;17.30;99.90;;;;;;7346713;19;110568;-90
2022/05/27 00:47:12;;;;;;;6.78;1.33;;;17.20;99.90;;;;;;7348934;19;108243;-89
2022/05/27 00:49:48;;;;;;;5.22;1.42;;;17.30;99.90;;;;;;7344596;19;111429;-90
2022/05/27 00:52:19;;;;;;;5.57;1.30;;;17.30;99.90;;;;;;7347239;19;108236;-89
2022/05/27 00:54:46;;;;;;;9.68;1.63;;;17.30;99.90;;;;;;7346309;19;108137;-91
2022/05/27 00:57:22;;;;;;;9.95;1.70;;;17.30;99.90;;;;;;7346173;19;107960;-90
2022/05/27 01:00:01;;;;;;;5.95;1.40;;;17.20;99.90;;;;;;7345572;19;108360;-89
2022/05/27 01:02:28;;;;;;;5.40;1.45;;;17.20;99.90;;;;;;7351396;19;110112;-91
2022/05/27 01:04:59;;;;;;;7.10;1.40;;;17.20;99.90;;;;;;7344912;19;107974;-90
2022/05/27 01:07:26;;;;;;;6.45;1.50;;;17.20;99.90;;;;;;7343450;19;108843;-91
2022/05/27 01:09:54;;;;;;;7.05;1.20;;;17.20;99.90;;;;;;7342899;19;108649;-90
2022/05/27 01:12:34;;;;;;;6.30;1.30;;;17.20;99.90;;;;;;7344039;19;110788;-91
2022/05/27 01:15:17;;;;;;;7.15;1.40;;;17.20;99.90;;;;;;7346124;19;110622;-91
2022/05/27 01:18:09;;;;;;;4.75;1.40;;;17.20;99.90;;;;;;7343986;19;108703;-90
2022/05/27 01:20:57;;;;;;;6.93;1.52;;;17.20;99.90;;;;;;7346606;19;108169;-92
2022/05/27 01:24:10;;;;;;;8.18;1.40;;;17.20;99.90;;;;;;7343164;19;108489;-91
2022/05/27 01:27:02;;;;;;;7.28;1.60;;;17.20;99.90;;;;;;7349763;19;109008;-91
2022/05/27 01:30:07;;;;;;;11.43;1.55;;;17.20;99.90;;;;;;7345277;19;108517;-90
2022/05/27 01:32:51;;;;;;;8.57;1.67;;;17.20;99.90;;;;;;7345759;19;108839;-92
2022/05/27 01:35:27;;;;;;;5.50;1.48;;;17.10;99.90;;;;;;7344804;19;107930;-90
2022/05/27 01:38:12;;;;;;;6.38;1.65;;;17.20;99.90;;;;;;7345240;19;107710;-93
2022/05/27 01:41:10;;;;;;;9.90;1.83;;;17.20;99.90;;;;;;7345395;19;107511;-92
2022/05/27 01:43:53;;;;;;;5.93;1.80;;;17.10;99.90;;;;;;7346159;19;108732;-92
2022/05/27 01:46:33;;;;;;;6.32;1.55;;;17.10;99.90;;;;;;7345262;19;108660;-91
2022/05/27 01:49:38;;;;;;;8.50;1.70;;;17.10;99.90;;;;;;7348992;19;108990;-90
2022/05/27 01:52:24;;;;;;;9.95;1.90;;;17.10;99.90;;;;;;7341810;19;107096;-92
2022/05/27 01:55:05;;;;;;;9.60;2.28;;;17.10;99.90;;;;;;7348117;19;107655;-91
2022/05/27 01:57:39;;;;;;;10.02;1.77;;;17.10;99.90;;;;;;7344033;19;108279;-90
2022/05/27 02:00:16;;;;;;;8.48;2.05;;;17.10;99.90;;;;;;7345076;19;110117;-92
2022/05/27 02:02:46;;;;;;;;;;;17.10;99.90;;;;;;7346359;19;111814;-91
2022/05/27 02:05:20;;;;;;;6.60;1.90;;;17.00;99.90;;;;;;7348486;19;108002;-92
2022/05/27 02:08:25;;;;;;;7.03;1.75;;;17.00;99.90;;;;;;7344509;19;107998;-91
2022/05/27 02:11:04;;;;;;;8.13;2.08;;;17.00;99.90;;;;;;7341609;19;108676;-92
2022/05/27 02:13:42;;;;;;;10.60;1.77;;;17.00;99.90;;;;;;7348480;19;108166;-93
2022/05/27 02:16:20;;;;;;;11.30;2.40;;;17.00;99.90;;;;;;7344186;19;108096;-91
2022/05/27 02:18:54;;;;;;;11.30;2.40;;;17.00;99.90;;;;;;7339816;19;108020;-91
2022/05/27 02:21:28;;;;;;;10.18;2.38;;;17.00;99.90;;;;;;7341257;19;107537;-91
2022/05/27 02:24:04;;;;;;;8.73;2.20;;;17.00;99.90;;;;;;7341585;19;109261;-90
2022/05/27 02:26:36;;;;;;;7.20;2.30;;;16.90;99.90;;;;;;7340559;19;108455;-92
2022/05/27 02:29:12;;;;;;;16.35;2.38;;;17.00;99.90;;;;;;7342519;19;108561;-91
2022/05/27 02:31:45;;;;;;;11.60;2.33;;;17.00;99.90;;;;;;7339476;19;111704;-91
2022/05/27 02:37:31;;;;;;;10.95;2.42;;;16.90;99.90;;;;;;7346751;19;108720;-92
2022/05/27 02:40:01;;;;;;;11.50;2.22;;;16.90;99.90;;;;;;7342248;19;108032;-92
2022/05/27 02:42:39;;;;;;;8.80;1.75;;;16.90;99.90;;;;;;7340358;19;107621;-91
2022/05/27 02:45:06;;;;;;;8.80;2.30;;;16.90;99.90;;;;;;7343253;19;108661;-91
2022/05/27 02:47:59;;;;;;;13.32;2.42;;;16.90;99.90;;;;;;7343097;19;108384;-90
2022/05/27 02:50:58;;;;;;;10.82;2.65;;;16.90;99.90;;;;;;7341688;19;109398;-91
2022/05/27 02:53:53;;;;;;;10.10;2.35;;;16.90;99.90;;;;;;7344453;19;108990;-91
2022/05/27 02:56:42;;;;;;;12.18;2.60;;;16.90;99.90;;;;;;7344486;19;107759;-91
2022/05/27 02:59:11;;;;;;;10.95;2.70;;;16.90;99.90;;;;;;7339809;19;108859;-91
2022/05/27 03:01:38;;;;;;;11.70;2.42;;;16.90;99.90;;;;;;7350155;19;108942;-92
2022/05/27 03:04:07;;;;;;;12.63;2.80;;;16.90;99.90;;;;;;7349675;19;107866;-91
2022/05/27 03:06:39;;;;;;;10.57;2.85;;;16.90;99.90;;;;;;7350929;19;108900;-93
2022/05/27 03:09:39;;;;;;;10.27;2.85;;;16.90;99.90;;;;;;7353002;19;108390;-91
2022/05/27 03:12:19;;;;;;;8.68;2.47;;;16.90;99.90;;;;;;7346654;19;110884;-91
2022/05/27 03:15:08;;;;;;;12.23;3.08;;;16.90;99.90;;;;;;7348437;19;111683;-92
2022/05/27 03:17:57;;;;;;;9.52;2.90;;;16.90;99.90;;;;;;7348402;19;108089;-92
2022/05/27 03:20:46;;;;;;;14.50;3.50;;;16.90;99.90;;;;;;7346899;19;108507;-91
2022/05/27 03:23:28;;;;;;;15.00;3.47;;;16.80;99.90;;;;;;7346173;19;108547;-92
2022/05/27 03:26:19;;;;;;;13.45;3.58;;;16.80;99.90;;;;;;7352517;19;108058;-91
2022/05/27 03:29:07;;;;;;;14.85;4.28;;;16.80;99.90;;;;;;7345950;19;109231;-91
2022/05/27 03:31:47;;;;;;;17.98;4.00;;;16.70;99.90;;;;;;7345246;19;108113;-91
2022/05/27 03:34:39;;;;;;;14.98;4.03;;;16.80;99.90;;;;;;7347078;19;109078;-91
2022/05/27 03:37:15;;;;;;;18.20;4.22;;;16.70;99.90;;;;;;7344487;19;108144;-91
2022/05/27 03:40:06;;;;;;;16.42;4.05;;;16.70;99.90;;;;;;7341569;19;112781;-90
2022/05/27 03:42:36;;;;;;;14.40;4.40;;;16.70;99.90;;;;;;7340364;19;108418;-90
2022/05/27 03:45:10;;;;;;;19.20;5.25;;;16.70;99.90;;;;;;7340951;19;108810;-90
2022/05/27 03:47:39;;;;;;;18.38;5.40;;;16.70;99.90;;;;;;7341019;19;110143;-90
2022/05/27 03:50:10;;;;;;;13.80;5.00;;;16.70;99.90;;;;;;7348738;19;107406;-90
2022/05/27 03:52:43;;;;;;;15.82;5.32;;;16.70;99.90;;;;;;7344980;19;107455;-90
2022/05/27 03:55:13;;;;;;;17.65;6.00;;;16.70;99.90;;;;;;7343433;19;108610;-91
2022/05/27 03:57:40;;;;;;;18.50;6.65;;;16.70;99.90;;;;;;7343656;19;108428;-91
2022/05/27 04:00:09;;;;;;;14.15;5.90;;;16.60;99.90;;;;;;7341273;19;108301;-91
2022/05/27 04:02:36;;;;;;;16.65;6.22;;;16.60;99.90;;;;;;7343160;19;107953;-91
2022/05/27 04:05:05;;;;;;;13.80;5.97;;;16.60;99.90;;;;;;7344870;19;107901;-91
2022/05/27 04:07:32;;;;;;;23.27;5.95;;;16.60;99.90;;;;;;7343169;19;107491;-92
2022/05/27 04:09:59;;;;;;;18.48;7.35;;;16.70;99.90;;;;;;7347583;19;108557;-90
2022/05/27 04:12:26;;;;;;;21.27;7.43;;;16.70;99.90;;;;;;7344845;19;108016;-91
2022/05/27 04:14:53;;;;;;;17.98;7.55;;;16.70;99.90;;;;;;7343574;19;108205;-90
2022/05/27 04:17:30;;;;;;;17.52;7.25;;;16.70;99.90;;;;;;7343861;19;107945;-91
2022/05/27 04:20:05;;;;;;;14.97;6.80;;;16.60;99.90;;;;;;7341793;19;107249;-91
2022/05/27 04:22:33;;;;;;;18.60;7.30;;;16.60;99.90;;;;;;7343199;19;110584;-92
2022/05/27 04:25:00;;;;;;;19.23;7.38;;;16.60;99.90;;;;;;7342861;19;108419;-92
2022/05/27 04:27:27;;;;;;;20.13;7.88;;;16.60;99.90;;;;;;7344209;19;107524;-91
2022/05/27 04:29:55;;;;;;;16.58;7.50;;;16.60;99.90;;;;;;7344436;19;108553;-93
2022/05/27 04:32:25;;;;;;;15.07;7.57;;;16.60;99.90;;;;;;7349555;19;109455;-91
2022/05/27 04:34:53;;;;;;;21.45;8.13;;;16.60;99.90;;;;;;7344776;19;108882;-92
2022/05/27 04:37:23;;;;;;;16.30;7.57;;;16.60;99.90;;;;;;7345146;19;109003;-93
2022/05/27 04:39:51;;;;;;;13.90;7.90;;;16.60;99.90;;;;;;7341301;19;109359;-92
2022/05/27 04:42:18;;;;;;;20.05;9.15;;;16.60;99.90;;;;;;7344536;19;108582;-92
2022/05/27 04:44:45;;;;;;;15.23;8.48;;;16.60;99.90;;;;;;7344639;19;109433;-93
2022/05/27 04:47:12;;;;;;;14.50;8.45;;;16.60;99.90;;;;;;7342864;19;107294;-92
2022/05/27 04:49:51;;;;;;;15.32;7.55;;;16.60;99.90;;;;;;7340847;19;108868;-92
2022/05/27 04:52:18;;;;;;;13.25;7.85;;;16.60;99.90;;;;;;7340535;19;109182;-92
2022/05/27 04:54:45;;;;;;;13.43;8.38;;;16.60;99.90;;;;;;7347023;19;107967;-91
2022/05/27 04:57:19;;;;;;;14.15;8.55;;;16.60;99.90;;;;;;7343276;19;109327;-92
2022/05/27 04:59:49;;;;;;;14.02;7.57;;;16.60;99.90;;;;;;7340285;19;108493;-90
2022/05/27 05:02:20;;;;;;;13.88;8.05;;;16.60;99.90;;;;;;7342766;19;108644;-92
2022/05/27 05:04:48;;;;;;;17.63;7.70;;;16.60;99.90;;;;;;7339488;19;109207;-90
2022/05/27 05:07:15;;;;;;;16.88;8.45;;;16.50;99.90;;;;;;7338597;19;107995;-90
2022/05/27 05:09:43;;;;;;;15.07;8.25;;;16.60;99.90;;;;;;7341141;19;108223;-91
2022/05/27 05:12:12;;;;;;;16.75;8.07;;;16.60;99.90;;;;;;7338970;19;111278;-88
2022/05/27 05:14:47;;;;;;;14.20;8.82;;;16.60;99.90;;;;;;7339883;19;107937;-91
2022/05/27 05:17:15;;;;;;;13.60;8.52;;;16.60;99.90;;;;;;7346552;19;108382;-90
2022/05/27 05:19:42;;;;;;;19.13;9.10;;;16.60;99.90;;;;;;7340288;19;107975;-89
2022/05/27 05:22:09;;;;;;;20.15;9.40;;;16.60;99.90;;;;;;7340315;19;108250;-90
2022/05/27 05:24:36;;;;;;;17.90;9.25;;;16.60;99.90;;;;;;7340735;19;108662;-91
2022/05/27 05:27:03;;;;;;;15.30;8.80;;;16.60;99.90;;;;;;7340490;19;108227;-90
2022/05/27 05:29:30;;;;;;;19.38;9.25;;;16.60;99.90;;;;;;7337590;19;107477;-91
2022/05/27 05:31:57;;;;;;;16.65;8.50;;;16.60;99.90;;;;;;7339186;19;112345;-91
2022/05/27 05:34:24;;;;;;;13.45;8.68;;;16.60;99.90;;;;;;7342395;19;109966;-91
2022/05/27 05:36:54;;;;;;;21.27;9.82;;;16.60;99.90;;;;;;7343062;19;108382;-92
2022/05/27 05:39:21;;;;;;;20.48;10.05;;;16.60;99.90;;;;;;7345718;19;108898;-91
2022/05/27 05:41:59;;;;;;;18.50;9.65;;;16.60;99.90;;;;;;7337980;19;111804;-91
2022/05/27 05:44:27;;;;;;;20.95;10.07;;;16.60;99.90;;;;;;7340330;19;109250;-92
2022/05/27 05:46:54;;;;;;;20.50;9.55;;;16.60;99.90;;;;;;7337807;19;111626;-91
2022/05/27 05:49:23;;;;;;;23.48;10.25;;;16.60;99.90;;;;;;7340543;19;107451;-90
2022/05/27 05:51:51;;;;;;;23.77;10.35;;;16.60;99.90;;;;;;7336576;19;111155;-90
2022/05/27 05:54:19;;;;;;;21.60;9.70;;;16.60;99.90;;;;;;7337174;19;113531;-90
2022/05/27 05:56:48;;;;;;;18.17;10.40;;;16.60;99.90;;;;;;7344747;19;107386;-91
2022/05/27 05:59:16;;;;;;;19.90;10.63;;;16.60;99.90;;;;;;7337736;19;110058;-91
2022/05/27 06:01:43;;;;;;;20.42;11.05;;;16.60;99.90;;;;;;7344307;19;111302;-90
2022/05/27 06:04:10;;;;;;;15.98;9.93;;;16.60;99.90;;;;;;7338224;19;111234;-91
2022/05/27 06:06:39;;;;;;;28.85;10.95;;;16.60;99.90;;;;;;7340162;19;111500;-91
2022/05/27 06:09:07;;;;;;;22.83;10.77;;;16.60;99.90;;;;;;7336178;19;112146;-91
2022/05/27 06:11:38;;;;;;;25.15;12.35;;;16.60;99.90;;;;;;7335074;19;109872;-90
2022/05/27 06:14:05;;;;;;;22.13;11.25;;;16.60;99.90;;;;;;7337069;19;114350;-91
2022/05/27 06:16:33;;;;;;;17.83;11.20;;;16.70;99.90;;;;;;7338012;19;111144;-92
2022/05/27 06:19:00;;;;;;;25.98;11.63;;;16.70;99.90;;;;;;7336216;19;110118;-91
2022/05/27 06:21:28;;;;;;;33.97;13.15;;;16.80;99.90;;;;;;7342995;19;112026;-90
2022/05/27 06:23:55;;;;;;;21.52;12.20;;;16.90;99.90;;;;;;7336323;19;110111;-91
2022/05/27 06:26:22;;;;;;;22.73;13.13;;;16.90;99.90;;;;;;7334664;19;110835;-91
2022/05/27 06:34:26;;;;;;;24.67;12.60;;;17.20;99.90;;;;;;7331199;19;110985;-90
2022/05/27 06:37:00;;;;;;;21.13;11.57;;;17.30;99.90;;;;;;7332197;19;112018;-90
2022/05/27 06:39:27;;;;;;;23.83;11.93;;;17.40;99.90;;;;;;7345921;19;110391;-89
2022/05/27 06:42:14;;;;;;;30.30;13.10;;;17.50;99.90;;;;;;7351174;19;110834;-90
2022/05/27 06:45:10;;;;;;;25.73;11.88;;;17.60;99.90;;;;;;7354506;19;111414;-91
2022/05/27 06:47:38;;;;;;;22.17;12.27;;;17.70;99.90;;;;;;7348250;19;111092;-89
2022/05/27 06:50:07;;;;;;;27.85;13.23;;;17.80;99.90;;;;;;7346710;19;110726;-91
2022/05/27 06:52:34;;;;;;;25.70;12.40;;;17.90;99.90;;;;;;7348173;19;110624;-89
2022/05/27 06:55:02;;;;;;;23.38;11.60;;;17.90;99.90;;;;;;7347678;19;111724;-91
2022/05/27 06:57:29;;;;;;;24.45;11.88;;;18.00;99.90;;;;;;7347827;19;111950;-89
2022/05/27 06:59:56;;;;;;;24.02;11.85;;;18.00;99.90;;;;;;7347597;19;110712;-90
2022/05/27 07:02:24;;;;;;;22.92;11.10;;;18.00;99.90;;;;;;7346730;19;111721;-89
2022/05/27 07:04:55;;;;;;;25.45;10.57;;;18.00;99.90;;;;;;7347818;19;113605;-89
2022/05/27 07:07:44;;;;;;;21.75;10.77;;;18.10;99.90;;;;;;7352287;19;110821;-88
2022/05/27 07:10:13;;;;;;;22.80;9.18;;;18.20;99.90;;;;;;7346397;19;112805;-90
2022/05/27 07:12:40;;;;;;;17.05;9.02;;;18.30;99.90;;;;;;7351816;19;112222;-87
2022/05/27 07:15:08;;;;;;;16.48;8.10;;;18.30;99.90;;;;;;7354806;19;108070;-89
2022/05/27 07:17:35;;;;;;;18.63;7.70;;;18.30;99.90;;;;;;7375301;19;107917;-91
2022/05/27 07:20:03;;;;;;;18.10;7.60;;;18.20;99.90;;;;;;7371074;19;107891;-88
2022/05/27 07:22:31;;;;;;;16.42;7.43;;;18.10;99.90;;;;;;7369493;19;107256;-88
2022/05/27 07:24:58;;;;;;;21.45;8.10;;;18.10;99.90;;;;;;7373261;19;107371;-89
2022/05/27 07:27:26;;;;;;;11.45;5.90;;;18.10;99.90;;;;;;7381896;19;108166;-89
2022/05/27 07:29:53;;;;;;;9.88;4.88;;;18.10;99.90;;;;;;7382700;19;107122;-89
2022/05/27 07:32:20;;;;;;;7.78;3.50;;;18.20;99.90;;;;;;7370471;19;107800;-89
2022/05/27 07:34:47;;;;;;;7.78;3.35;;;18.30;99.90;;;;;;7381237;19;107901;-90
2022/05/27 07:37:15;;;;;;;4.65;2.80;;;18.20;99.90;;;;;;7383043;19;106704;-90
2022/05/27 07:39:42;;;;;;;9.52;3.13;;;18.20;99.90;;;;;;7381177;19;107195;-88
2022/05/27 07:42:10;;;;;;;6.25;3.30;;;18.20;99.90;;;;;;7379772;19;109259;-94
2022/05/27 07:44:37;;;;;;;8.93;2.90;;;18.30;99.90;;;;;;7384106;19;109220;-93
2022/05/27 07:47:05;;;;;;;8.38;2.80;;;18.40;99.90;;;;;;7388391;19;111615;-92
2022/05/27 07:49:33;;;;;;;7.13;2.95;;;18.50;99.90;;;;;;7385416;19;109985;-92
2022/05/27 07:52:02;;;;;;;10.82;3.03;;;18.70;99.90;;;;;;7386027;19;107089;-93
2022/05/27 07:54:29;;;;;;;9.77;2.85;;;18.80;99.90;;;;;;7381668;19;106819;-93
2022/05/27 07:56:57;;;;;;;8.45;2.30;;;19.00;99.90;;;;;;7382405;19;107551;-92
2022/05/27 07:59:24;;;;;;;10.07;2.58;;;19.10;99.90;;;;;;7379177;19;107784;-92
2022/05/27 08:01:51;;;;;;;6.70;2.05;;;19.10;99.90;;;;;;7379894;19;108060;-92
2022/05/27 08:04:18;;;;;;;8.95;1.80;;;19.20;99.90;;;;;;7378341;19;111517;-92
2022/05/27 08:06:46;;;;;;;7.78;2.05;;;19.20;99.90;;;;;;7380783;19;107789;-91
2022/05/27 08:09:14;;;;;;;6.35;1.80;;;19.10;99.90;;;;;;7378783;19;108915;-92
2022/05/27 08:11:41;;;;;;;7.63;1.90;;;19.10;99.90;;;;;;7383836;19;106899;-91
2022/05/27 08:14:09;;;;;;;7.15;1.75;;;19.10;99.90;;;;;;7380031;19;106814;-92
2022/05/27 08:16:37;;;;;;;6.30;2.13;;;19.30;99.90;;;;;;7377109;19;107444;-92
2022/05/27 08:19:05;;;;;;;7.47;1.90;;;19.40;99.90;;;;;;7376233;19;107346;-91
2022/05/27 08:21:36;;;;;;;5.68;2.00;;;19.50;99.90;;;;;;7372436;19;107395;-90
2022/05/27 08:24:05;;;;;;;7.38;2.15;;;19.60;99.90;;;;;;7367930;19;107410;-90
2022/05/27 08:26:32;;;;;;;6.55;2.10;;;19.70;99.90;;;;;;7376514;19;108150;-92
2022/05/27 08:28:59;;;;;;;7.40;1.83;;;19.80;99.90;;;;;;7378513;19;108294;-88
2022/05/27 08:31:26;;;;;;;9.27;1.80;;;19.90;99.90;;;;;;7374877;19;108725;-90
2022/05/27 08:39:26;;;;;;;5.20;1.83;;;19.60;99.90;;;;;;7362094;19;109343;-87
2022/05/27 08:41:53;;;;;;;7.97;2.08;;;19.50;99.90;;;;;;7348229;19;108073;-89
2022/05/27 08:44:51;;;;;;;6.00;1.70;;;19.50;99.90;;;;;;7337293;19;111230;-87
2022/05/27 08:47:24;;;;;;;7.40;2.13;;;19.40;99.90;;;;;;7339619;19;110926;-88
2022/05/27 08:50:09;;;;;;;4.75;1.90;;;19.60;99.90;;;;;;7340315;19;107943;-88
2022/05/27 08:52:44;;;;;;;4.35;1.90;;;19.70;99.90;;;;;;7344392;19;107739;-88
2022/05/27 09:01:25;;;;;;;6.22;1.58;;;20.10;99.90;;;;;;7341258;19;110002;-87
2022/05/27 09:03:59;;;;;;;5.70;1.70;;;20.20;99.90;;;;;;7341690;19;108088;-87
2022/05/27 09:06:41;;;;;;;5.38;1.90;;;20.20;99.90;;;;;;7343180;19;108520;-87
2022/05/27 09:09:17;;;;;;;7.28;1.85;;;20.20;99.90;;;;;;7341382;19;108357;-87
2022/05/27 09:12:01;;;;;;;8.63;1.65;;;20.00;99.90;;;;;;7341465;19;110156;-87
2022/05/27 09:14:31;;;;;;;4.53;1.63;;;19.90;99.90;;;;;;7342586;19;108190;-87
2022/05/27 09:17:07;;;;;;;9.40;1.88;;;19.80;99.90;;;;;;7342042;19;108397;-86
2022/05/27 09:20:24;;;;;;;7.97;1.70;;;19.80;99.90;;;;;;7343226;19;108340;-85
2022/05/27 09:23:21;;;;;;;5.93;1.70;;;19.90;99.90;;;;;;7344604;19;108469;-86
2022/05/27 09:26:04;;;;;;;7.57;2.00;;;20.10;99.90;;;;;;7342724;19;108119;-86
2022/05/27 09:28:57;;;;;;;5.03;1.67;;;20.10;99.90;;;;;;7337405;19;110364;-86
2022/05/27 09:31:54;;;;;;;7.72;1.90;;;20.10;99.90;;;;;;7338939;19;111278;-86
2022/05/27 09:34:36;;;;;;;4.97;1.42;;;20.10;99.90;;;;;;7338841;19;108002;-87
2022/05/27 09:37:09;;;;;;;8.98;2.10;;;20.10;99.90;;;;;;7339604;19;107871;-86
2022/05/27 09:39:40;;;;;;;7.60;1.92;;;20.20;99.90;;;;;;7340307;19;108717;-87
2022/05/27 09:42:31;;;;;;;6.35;1.73;;;20.20;99.90;;;;;;7337405;19;110609;-87
2022/05/27 09:45:01;;;;;;;7.05;1.58;;;20.20;98.90;;;;;;7341932;19;107533;-85
2022/05/27 09:47:34;;;;;;;8.05;1.67;;;20.30;99.90;;;;;;7345679;19;108626;-88
2022/05/27 09:50:10;;;;;;;9.45;1.73;;;20.50;99.90;;;;;;7341155;19;111566;-86
2022/05/27 09:52:49;;;;;;;7.32;1.75;;;20.70;99.00;;;;;;7339298;19;110024;-86
2022/05/27 09:55:54;;;;;;;8.27;1.77;;;20.70;98.10;;;;;;7339523;19;108295;-88
2022/05/27 09:58:49;;;;;;;8.43;1.95;;;20.70;96.80;;;;;;7339743;19;109299;-86
2022/05/27 10:01:30;;;;;;;5.10;1.73;;;20.60;98.10;;;;;;7338889;19;111118;-88
2022/05/27 10:04:12;;;;;;;7.82;1.90;;;20.80;98.30;;;;;;7342221;19;107646;-87
2022/05/27 10:06:40;;;;;;;7.35;1.70;;;20.90;98.30;;;;;;7338913;19;108241;-88
2022/05/27 10:09:29;;;;;;;10.00;2.35;;;20.90;97.80;;;;;;7338002;19;108468;-89
2022/05/27 10:11:58;;;;;;;8.35;2.17;;;20.80;97.10;;;;;;7344460;19;108225;-88
2022/05/27 10:14:39;;;;;;;7.50;1.60;;;20.70;96.90;;;;;;7336793;19;109040;-88
2022/05/27 10:17:25;;;;;;;8.07;1.50;;;20.70;95.40;;;;;;7342034;19;107830;-87
2022/05/27 10:19:52;;;;;;;10.57;1.80;;;20.60;97.30;;;;;;7338942;19;110745;-86
2022/05/27 10:22:29;;;;;;;6.10;1.80;;;20.80;96.70;;;;;;7336940;19;107920;-87
2022/05/27 10:25:11;;;;;;;7.65;2.30;;;20.70;96.80;;;;;;7338716;19;109523;-89
2022/05/27 10:27:51;;;;;;;10.85;1.95;;;20.70;96.50;;;;;;7339689;19;108346;-88
2022/05/27 10:30:26;;;;;;;7.68;1.80;;;20.60;95.80;;;;;;7339222;19;109248;-87
2022/05/27 10:32:53;;;;;;;7.28;1.73;;;20.70;95.90;;;;;;7347039;19;107109;-88
2022/05/27 10:35:21;;;;;;;6.97;1.60;;;20.70;95.20;;;;;;7340933;19;111641;-87
2022/05/27 10:38:11;;;;;;;8.25;1.58;;;20.70;96.00;;;;;;7340210;19;107327;-87
2022/05/27 10:40:56;;;;;;;5.97;1.95;;;20.90;95.00;;;;;;7337748;19;107255;-84
2022/05/27 10:43:32;;;;;;;7.57;1.70;;;21.00;95.90;;;;;;7335921;19;110585;-87
2022/05/27 10:46:04;;;;;;;6.17;2.10;;;21.10;96.40;;;;;;7335692;19;108198;-88
2022/05/27 10:48:31;;;;;;;7.75;1.70;;;21.20;95.40;;;;;;7339508;19;111121;-89
2022/05/27 10:51:08;;;;;;;10.25;1.88;;;21.30;94.10;;;;;;7338494;19;109281;-87
2022/05/27 10:54:07;;;;;;;5.32;1.60;;;21.30;94.40;;;;;;7351776;19;107961;-93
2022/05/27 11:03:13;;;;;;;7.20;1.50;;;21.60;92.80;;;;;;7336424;19;107584;-88
2022/05/27 11:05:52;;;;;;;7.00;1.80;;;21.60;93.00;;;;;;7340577;19;109018;-89
2022/05/27 11:08:27;;;;;;;7.90;1.67;;;21.50;93.10;;;;;;7337639;19;108119;-88
2022/05/27 11:10:54;;;;;;;8.43;1.90;;;21.40;92.70;;;;;;7338555;19;108743;-87
2022/05/27 11:16:37;;;;;;;9.82;1.90;;;21.30;92.50;;;;;;7339855;19;112844;-88
2022/05/27 11:19:18;;;;;;;5.45;1.85;;;21.20;93.10;;;;;;7334659;19;108773;-87
2022/05/27 11:22:05;;;;;;;9.35;2.08;;;21.20;93.60;;;;;;7342151;19;108212;-87
2022/05/27 11:25:04;;;;;;;9.18;2.05;;;21.20;93.10;;;;;;7340555;19;108263;-89
2022/05/27 11:28:09;;;;;;;8.20;2.40;;;21.30;92.40;;;;;;7345166;19;111332;-88
2022/05/27 11:30:57;;;;;;;8.93;1.98;;;21.40;92.50;;;;;;7344897;19;108230;-86
2022/05/27 11:33:55;;;;;;;10.07;2.17;;;21.40;92.50;;;;;;7345403;19;108210;-88
2022/05/27 11:36:28;;;;;;;7.65;2.35;;;21.70;92.90;;;;;;7346655;19;108157;-88
2022/05/27 11:39:22;;;;;;;7.55;1.85;;;21.40;92.40;;;;;;7346330;19;108184;-86
2022/05/27 11:42:21;;;;;;;11.75;2.42;;;21.30;92.60;;;;;;7343756;19;108241;-89
2022/05/27 11:44:58;;;;;;;7.75;2.20;;;21.30;92.60;;;;;;7343259;19;109595;-86
2022/05/27 11:47:46;;;;;;;7.03;1.97;;;21.40;92.30;;;;;;7345664;19;107096;-88
2022/05/27 11:50:27;;;;;;;7.65;2.22;;;21.50;92.60;;;;;;7343104;19;108954;-88
2022/05/27 11:53:16;;;;;;;6.28;2.03;;;21.60;91.60;;;;;;7343295;19;108005;-87
2022/05/27 11:56:35;;;;;;;8.48;2.40;;;21.80;91.40;;;;;;7343543;19;107975;-86
2022/05/27 11:59:21;;;;;;;8.00;1.83;;;21.80;90.70;;;;;;7343629;19;109741;-87
2022/05/27 12:01:56;;;;;;;8.88;2.45;;;21.60;90.40;;;;;;7343649;19;108189;-87
2022/05/27 12:04:34;;;;;;;6.75;2.00;;;21.40;90.50;;;;;;7344745;19;107188;-86
2022/05/27 12:07:09;;;;;;;7.18;1.77;;;21.30;90.40;;;;;;7344086;19;108516;-87
2022/05/27 12:09:51;;;;;;;8.77;2.45;;;21.50;91.00;;;;;;7343802;19;107697;-89
2022/05/27 12:12:54;;;;;;;12.52;2.65;;;21.60;90.40;;;;;;7350630;19;107890;-87
2022/05/27 12:15:36;;;;;;;11.18;2.47;;;21.80;92.00;;;;;;7343359;19;107679;-85
2022/05/27 12:18:09;;;;;;;9.80;2.47;;;22.10;90.40;;;;;;7343914;19;108251;-87
2022/05/27 12:20:38;;;;;;;10.30;1.98;;;22.20;90.90;;;;;;7345934;19;111241;-87
2022/05/27 12:23:08;;;;;;;8.82;2.55;;;22.40;90.40;;;;;;7341482;19;107825;-86
2022/05/27 12:25:44;;;;;;;9.50;2.10;;;22.60;86.30;;;;;;7341674;19;107265;-86
2022/05/27 12:28:15;;;;;;;8.52;1.75;;;22.50;89.50;;;;;;7341027;19;108287;-89
2022/05/27 12:30:44;;;;;;;9.82;2.05;;;22.60;86.40;;;;;;7343494;19;107716;-87
2022/05/27 12:33:16;;;;;;;10.55;2.47;;;22.60;85.60;;;;;;7343801;19;108666;-91
2022/05/27 12:35:50;;;;;;;10.35;2.20;;;22.70;84.00;;;;;;7348551;19;109655;-89
2022/05/27 12:38:23;;;;;;;9.55;2.08;;;22.60;82.10;;;;;;7342482;19;108489;-89
2022/05/27 12:40:50;;;;;;;9.75;2.00;;;22.30;83.70;;;;;;7345608;19;109313;-89
2022/05/27 12:43:25;;;;;;;7.80;2.33;;;22.20;83.30;;;;;;7340862;19;109301;-87
2022/05/27 12:46:02;;;;;;;8.15;1.98;;;22.00;85.80;;;;;;7342617;19;108124;-87
2022/05/27 12:48:43;;;;;;;9.82;1.70;;;22.20;87.00;;;;;;7344071;19;108924;-87
2022/05/27 12:51:16;;;;;;;8.30;2.08;;;22.40;87.10;;;;;;7339820;19;109831;-87
2022/05/27 12:53:59;;;;;;;7.72;2.10;;;22.60;84.80;;;;;;7343748;19;108409;-88
2022/05/27 13:02:31;;;;;;;10.47;2.13;;;23.10;84.00;;;;;;7343558;19;108891;-88
2022/05/27 13:05:03;;;;;;;6.05;1.83;;;23.20;82.40;;;;;;7341938;19;109726;-89
2022/05/27 13:07:33;;;;;;;11.60;2.22;;;23.10;82.90;;;;;;7342173;19;108023;-87
2022/05/27 13:10:23;;;;;;;11.23;2.17;;;23.00;82.00;;;;;;7343785;19;109571;-88
2022/05/27 13:13:06;;;;;;;5.63;1.60;;;23.00;85.10;;;;;;7343062;19;107989;-89
2022/05/27 13:15:43;;;;;;;9.13;1.85;;;23.00;81.30;;;;;;7342440;19;108184;-87
2022/05/27 13:18:29;;;;;;;13.70;2.45;;;23.00;80.50;;;;;;7342656;19;108973;-88
2022/05/27 13:21:35;;;;;;;8.90;2.35;;;23.20;82.10;;;;;;7350444;19;107968;-89
2022/05/27 13:24:26;;;;;;;10.25;2.00;;;23.30;80.50;;;;;;7342004;19;109150;-91
2022/05/27 13:27:00;;;;;;;11.68;2.10;;;23.40;82.60;;;;;;7341678;19;108410;-88
2022/05/27 13:29:44;;;;;;;6.55;2.10;;;23.40;80.00;;;;;;7343038;19;108746;-87
2022/05/27 13:32:11;;;;;;;7.45;2.00;;;23.50;77.80;;;;;;7345031;19;109296;-91
2022/05/27 13:35:15;;;;;;;6.40;1.98;;;23.50;78.90;;;;;;7341626;19;109802;-89
2022/05/27 13:37:58;;;;;;;11.00;1.77;;;23.50;77.40;;;;;;7337855;19;108262;-89
2022/05/27 13:40:32;;;;;;;10.85;2.15;;;23.40;79.90;;;;;;7343576;19;108710;-92
2022/05/27 13:43:09;;;;;;;8.40;2.15;;;23.60;77.70;;;;;;7342993;19;107990;-90
2022/05/27 13:45:36;;;;;;;;;;;23.60;74.00;;;;;;7352320;19;107954;-89
2022/05/27 13:48:08;;;;;;;9.70;2.33;;;23.30;76.50;;;;;;7345082;19;107681;-92